Time;durP1;ratioP1;P1;durP2;ratioP2;P2;SDS_P1;SDS_P2;PMS_P1;PMS_P2;Temp;Humidity;BMP_temperature;BMP_pressure;BME280_temperature;BME280_humidity;BME280_pressure;Samples;Min_cycle;Max_cycle;Signal;HPM_P1;HPM_P2
2023/06/05 00:00:41;;;;;;;6.30;1.83;;;;;;;15.42;69.93;101822.84;5034443;28;20045;-73
2023/06/05 00:03:07;;;;;;;6.10;2.30;;;;;;;15.37;70.47;101824.16;5000504;28;20043;-73
2023/06/05 00:05:32;;;;;;;6.97;2.58;;;;;;;15.33;70.59;101820.22;5033702;28;20332;-73
2023/06/05 00:07:58;;;;;;;6.50;2.28;;;;;;;15.31;70.67;101821.34;5032027;28;20407;-73
2023/06/05 00:10:24;;;;;;;8.88;2.58;;;;;;;15.30;70.79;101823.16;5030083;28;20096;-73
2023/06/05 00:12:49;;;;;;;9.68;2.70;;;;;;;15.22;71.15;101820.56;5010414;28;20072;-73
2023/06/05 00:15:15;;;;;;;6.80;2.53;;;;;;;15.21;71.45;101831.97;5029764;28;20049;-73
2023/06/05 00:17:41;;;;;;;7.65;2.30;;;;;;;15.16;71.50;101829.00;5030414;28;20037;-73
2023/06/05 00:20:09;;;;;;;5.10;2.47;;;;;;;15.15;71.76;101830.00;5037645;28;20044;-73
2023/06/05 00:22:35;;;;;;;5.18;2.13;;;;;;;15.15;71.98;101825.59;5023573;28;20111;-73
2023/06/05 00:25:00;;;;;;;4.55;1.80;;;;;;;15.11;72.06;101826.91;5049649;28;20131;-73
2023/06/05 00:27:27;;;;;;;7.20;2.10;;;;;;;15.09;72.15;101825.44;5032275;28;20032;-73
2023/06/05 00:29:52;;;;;;;6.72;2.97;;;;;;;15.08;72.06;101823.78;5051840;28;20048;-73
2023/06/05 00:32:18;;;;;;;6.13;2.10;;;;;;;15.03;72.33;101820.81;5034138;28;20033;-73
2023/06/05 00:34:43;;;;;;;5.97;2.30;;;;;;;14.91;72.87;101822.94;5035371;28;20040;-73
2023/06/05 00:37:09;;;;;;;4.03;1.88;;;;;;;14.89;73.03;101825.69;5017573;28;20816;-73
2023/06/05 00:39:34;;;;;;;5.45;2.20;;;;;;;14.88;72.96;101824.06;5033928;28;20086;-73
2023/06/05 00:42:00;;;;;;;7.97;2.72;;;;;;;14.88;73.24;101829.31;5037194;28;20086;-73
2023/06/05 00:44:25;;;;;;;4.15;2.00;;;;;;;14.85;73.18;101827.00;5019495;28;20058;-73
2023/06/05 00:46:52;;;;;;;7.90;2.85;;;;;;;14.82;73.31;101829.91;5018992;28;20034;-73
2023/06/05 00:49:18;;;;;;;7.38;2.42;;;;;;;14.81;73.38;101830.09;5019933;28;20086;-73
2023/06/05 00:51:45;;;;;;;3.55;1.63;;;;;;;14.78;73.45;101826.81;5023398;28;20036;-73
2023/06/05 00:54:13;;;;;;;4.13;2.00;;;;;;;14.76;73.43;101823.53;5044153;28;20049;-72
2023/06/05 00:56:40;;;;;;;5.82;2.55;;;;;;;14.70;73.67;101828.59;5026609;28;20434;-73
2023/06/05 00:59:07;;;;;;;7.13;2.35;;;;;;;14.71;74.01;101825.81;5039756;28;20607;-73
2023/06/05 01:01:34;;;;;;;5.35;2.22;;;;;;;14.63;74.14;101823.16;5021747;28;20992;-73
2023/06/05 01:04:00;;;;;;;6.72;2.30;;;;;;;14.53;74.59;101825.06;5027397;28;20051;-73
2023/06/05 01:06:30;;;;;;;6.85;2.50;;;;;;;14.43;74.81;101822.59;5035626;28;20411;-72
2023/06/05 01:08:57;;;;;;;5.43;2.10;;;;;;;14.39;74.99;101824.69;5035174;28;20049;-73
2023/06/05 01:11:37;;;;;;;7.05;2.35;;;;;;;14.32;75.43;101825.47;5048226;28;20025;-73
2023/06/05 01:14:27;;;;;;;8.05;2.60;;;;;;;14.28;75.70;101818.91;5047217;28;20499;-73
2023/06/05 01:16:54;;;;;;;5.63;2.10;;;;;;;14.27;75.58;101823.31;5048969;28;20112;-73
2023/06/05 01:19:24;;;;;;;6.53;2.83;;;;;;;14.30;75.50;101820.41;5037746;28;20061;-72
2023/06/05 01:21:50;;;;;;;4.85;2.28;;;;;;;14.26;75.65;101831.28;5032190;28;20433;-73
2023/06/05 01:24:17;;;;;;;3.33;2.00;;;;;;;14.24;75.81;101818.41;5023789;28;20056;-73
2023/06/05 01:27:02;;;;;;;6.68;2.38;;;;;;;14.20;75.87;101822.28;5020307;28;20029;-73
2023/06/05 01:29:41;;;;;;;5.70;2.92;;;;;;;14.08;76.38;101816.53;5021675;28;20053;-73
2023/06/05 01:32:24;;;;;;;5.72;2.55;;;;;;;14.00;76.65;101819.09;5036443;28;20510;-72
2023/06/05 01:34:53;;;;;;;6.60;2.30;;;;;;;13.98;76.66;101814.03;5020128;28;20513;-72
2023/06/05 01:37:24;;;;;;;4.38;2.08;;;;;;;13.95;76.89;101813.50;5023413;28;20434;-72
2023/06/05 01:39:52;;;;;;;7.40;2.78;;;;;;;13.87;76.91;101811.69;5015794;28;20041;-72
2023/06/05 01:42:19;;;;;;;4.75;2.53;;;;;;;13.80;77.24;101815.84;5020878;28;20075;-72
2023/06/05 01:44:45;;;;;;;5.68;1.80;;;;;;;13.76;77.39;101812.72;5006971;28;20498;-72
2023/06/05 01:47:12;;;;;;;5.25;2.75;;;;;;;13.75;77.33;101811.13;5022479;28;20265;-72
2023/06/05 01:49:37;;;;;;;10.43;2.67;;;;;;;13.75;77.54;101811.13;5041501;28;20525;-73
2023/06/05 01:52:03;;;;;;;8.35;2.97;;;;;;;13.76;77.10;101802.31;5034332;28;20033;-73
2023/06/05 01:54:28;;;;;;;5.72;3.08;;;;;;;13.75;77.37;101810.28;5038955;28;20041;-72
2023/06/05 01:56:55;;;;;;;4.72;1.98;;;;;;;13.70;77.39;101807.31;5038153;28;20325;-72
2023/06/05 01:59:21;;;;;;;5.63;2.00;;;;;;;13.68;77.46;101807.47;5017767;28;20590;-73
2023/06/05 02:01:48;;;;;;;5.60;2.33;;;;;;;13.62;77.55;101800.28;5001269;28;20136;-73
2023/06/05 02:04:16;;;;;;;6.60;2.63;;;;;;;13.57;77.75;101803.31;5027703;28;20068;-73
2023/06/05 02:06:43;;;;;;;6.53;2.40;;;;;;;13.54;77.85;101797.59;5053332;28;20024;-73
2023/06/05 02:09:12;;;;;;;5.88;2.60;;;;;;;13.52;78.05;101805.53;5028105;28;20045;-73
2023/06/05 02:11:38;;;;;;;7.05;2.95;;;;;;;13.48;78.28;101800.81;5019641;28;20032;-72
2023/06/05 02:14:12;;;;;;;7.72;2.55;;;;;;;13.46;78.34;101803.56;5005491;28;20052;-72
2023/06/05 02:16:38;;;;;;;5.07;2.85;;;;;;;13.44;78.45;101797.69;5017465;28;20048;-72
2023/06/05 02:19:04;;;;;;;6.10;2.35;;;;;;;13.42;78.45;101802.22;5017318;28;20082;-73
2023/06/05 02:21:33;;;;;;;5.07;2.60;;;;;;;13.35;78.75;101794.16;5024434;28;20078;-73
2023/06/05 02:23:59;;;;;;;6.13;2.75;;;;;;;13.39;78.95;101800.75;5021568;28;20040;-73
2023/06/05 02:26:26;;;;;;;6.47;2.55;;;;;;;13.33;78.87;101790.91;5019610;28;20099;-73
2023/06/05 02:28:55;;;;;;;8.25;2.63;;;;;;;13.39;78.93;101789.47;5032885;28;20580;-73
2023/06/05 02:31:25;;;;;;;9.10;3.47;;;;;;;13.31;79.61;101782.41;4996745;23;20046;-67
2023/06/05 02:33:53;;;;;;;7.80;2.65;;;;;;;13.25;79.62;101799.44;4979341;28;20038;-67
2023/06/05 02:36:19;;;;;;;8.10;3.85;;;;;;;13.29;79.34;101789.53;4994812;28;20068;-67
2023/06/05 02:38:46;;;;;;;6.25;2.92;;;;;;;13.29;79.34;101784.31;4993465;28;20114;-67
2023/06/05 02:41:12;;;;;;;7.93;3.20;;;;;;;13.20;79.66;101785.22;4963952;28;20066;-67
2023/06/05 02:43:37;;;;;;;4.47;2.50;;;;;;;13.18;79.98;101790.56;4977367;28;20058;-67
2023/06/05 02:46:03;;;;;;;8.65;3.30;;;;;;;13.11;80.03;101789.56;4974549;28;20022;-67
2023/06/05 02:48:29;;;;;;;6.45;2.67;;;;;;;13.08;80.13;101792.44;4957196;28;20042;-67
2023/06/05 02:50:55;;;;;;;6.88;3.10;;;;;;;13.03;80.00;101792.06;4958507;28;20511;-67
2023/06/05 02:53:21;;;;;;;6.25;3.15;;;;;;;13.02;80.28;101787.84;4960069;28;20046;-66
2023/06/05 02:55:47;;;;;;;7.78;3.17;;;;;;;12.95;80.58;101785.00;4967329;28;20031;-67
2023/06/05 02:58:17;;;;;;;5.05;2.45;;;;;;;12.95;81.01;101778.97;4958942;28;20073;-67
2023/06/05 03:00:50;;;;;;;7.75;3.10;;;;;;;12.92;80.80;101782.72;4963223;28;20467;-67
2023/06/05 03:03:16;;;;;;;6.68;3.20;;;;;;;12.86;81.19;101785.88;4960061;28;20042;-67
2023/06/05 03:05:44;;;;;;;11.85;3.20;;;;;;;12.84;81.28;101787.81;4975845;28;20038;-67
2023/06/05 03:08:13;;;;;;;8.60;2.92;;;;;;;12.82;81.39;101790.56;4958164;28;20061;-67
2023/06/05 03:10:38;;;;;;;6.90;3.25;;;;;;;12.73;81.76;101788.00;4976335;28;20030;-67
2023/06/05 03:13:05;;;;;;;10.15;3.55;;;;;;;12.69;82.07;101782.28;4959895;28;20053;-67
2023/06/05 03:15:34;;;;;;;8.52;3.58;;;;;;;12.68;82.02;101780.66;4973766;28;20034;-67
2023/06/05 03:18:00;;;;;;;5.93;3.03;;;;;;;12.66;82.46;101785.19;4943322;28;20138;-67
2023/06/05 03:20:26;;;;;;;8.98;3.28;;;;;;;12.65;82.09;101784.34;4960540;28;20101;-67
2023/06/05 03:22:52;;;;;;;6.95;3.40;;;;;;;12.60;82.61;101783.16;4956552;28;20484;-68
2023/06/05 03:25:18;;;;;;;10.45;3.33;;;;;;;12.58;82.67;101785.91;4957566;28;20488;-67
2023/06/05 03:27:46;;;;;;;8.95;3.30;;;;;;;12.56;82.73;101787.81;4973832;28;20662;-67
2023/06/05 03:30:16;;;;;;;10.68;3.30;;;;;;;12.54;82.75;101787.16;4976327;28;20073;-67
2023/06/05 03:32:43;;;;;;;6.30;3.30;;;;;;;12.55;83.00;101782.78;4980157;28;20038;-67
2023/06/05 03:35:10;;;;;;;8.55;3.42;;;;;;;12.51;82.97;101779.66;4984793;28;20052;-67
2023/06/05 03:37:38;;;;;;;6.68;3.35;;;;;;;12.49;83.06;101780.75;4983599;28;20041;-67
2023/06/05 03:40:05;;;;;;;8.07;3.33;;;;;;;12.47;83.09;101783.50;4992506;28;20543;-67
2023/06/05 03:42:31;;;;;;;9.75;3.30;;;;;;;12.47;82.99;101780.91;4993339;28;20548;-67
2023/06/05 03:44:56;;;;;;;7.65;3.92;;;;;;;12.44;83.56;101786.38;4979471;28;20049;-66
2023/06/05 03:47:23;;;;;;;7.78;3.78;;;;;;;12.39;83.36;101788.59;4978109;28;20496;-67
2023/06/05 03:49:50;;;;;;;6.50;3.60;;;;;;;12.36;83.64;101779.31;4990604;28;20061;-67
2023/06/05 03:52:16;;;;;;;7.85;3.67;;;;;;;12.31;83.95;101786.72;4983258;28;20056;-67
2023/06/05 03:54:44;;;;;;;10.10;3.63;;;;;;;12.27;84.32;101788.78;4994363;28;20069;-67
2023/06/05 03:57:14;;;;;;;8.40;3.47;;;;;;;12.29;84.36;101786.03;4995853;28;20034;-67
2023/06/05 03:59:41;;;;;;;11.20;3.88;;;;;;;12.30;84.41;101794.66;4977246;28;20042;-67
2023/06/05 04:02:07;;;;;;;10.65;3.95;;;;;;;12.30;84.58;101792.91;4978717;28;20034;-67
2023/06/05 04:04:34;;;;;;;9.90;4.18;;;;;;;12.28;84.35;101787.00;4980153;28;20046;-67
2023/06/05 04:07:00;;;;;;;9.85;3.58;;;;;;;12.29;84.67;101791.25;4981714;28;20053;-67
2023/06/05 04:09:27;;;;;;;10.52;3.85;;;;;;;12.32;84.50;101790.13;4978367;28;20037;-67
2023/06/05 04:11:53;;;;;;;8.63;3.97;;;;;;;12.36;84.56;101784.50;4978101;28;20355;-67
2023/06/05 04:14:19;;;;;;;7.88;3.42;;;;;;;12.35;84.55;101795.06;4992616;28;20632;-67
2023/06/05 04:16:45;;;;;;;9.38;3.67;;;;;;;12.34;84.52;101785.59;4977995;28;20030;-67
2023/06/05 04:19:16;;;;;;;6.07;3.30;;;;;;;12.35;84.57;101784.66;4981426;28;20080;-67
2023/06/05 04:21:44;;;;;;;7.82;4.07;;;;;;;12.29;84.77;101783.44;4996553;28;20084;-67
2023/06/05 04:24:10;;;;;;;9.90;3.40;;;;;;;12.27;84.99;101790.56;4984272;28;20756;-67
2023/06/05 04:26:38;;;;;;;12.80;3.97;;;;;;;12.29;85.25;101793.03;4996736;28;20509;-67
2023/06/05 04:29:13;;;;;;;5.68;3.65;;;;;;;12.27;85.44;101791.38;4982547;28;20048;-66
2023/06/05 04:31:40;;;;;;;8.02;3.65;;;;;;;12.30;85.37;101790.28;4996525;28;20058;-67
2023/06/05 04:34:08;;;;;;;7.57;3.80;;;;;;;12.36;85.05;101786.31;4993547;28;20038;-67
2023/06/05 04:36:34;;;;;;;11.13;4.18;;;;;;;12.40;84.81;101788.47;4996448;28;20026;-67
2023/06/05 04:39:03;;;;;;;7.22;3.83;;;;;;;12.42;84.84;101789.13;4984478;28;20054;-67
2023/06/05 04:41:32;;;;;;;10.40;4.00;;;;;;;12.46;84.65;101793.06;4996925;28;20041;-67
2023/06/05 04:43:59;;;;;;;10.82;4.10;;;;;;;12.47;84.86;101793.91;4983030;28;20683;-67
2023/06/05 04:46:26;;;;;;;11.18;4.28;;;;;;;12.44;84.40;101794.19;4996984;28;20034;-67
2023/06/05 04:48:55;;;;;;;8.10;3.65;;;;;;;12.42;84.55;101790.91;4983539;28;20140;-67
2023/06/05 04:51:23;;;;;;;9.30;4.00;;;;;;;12.50;84.80;101792.78;4995386;28;20077;-66
2023/06/05 04:53:52;;;;;;;9.55;3.90;;;;;;;12.56;84.75;101793.03;4984939;28;20044;-67
2023/06/05 04:56:21;;;;;;;8.57;3.73;;;;;;;12.58;84.71;101792.88;4983530;28;20392;-67
2023/06/05 04:58:50;;;;;;;10.02;4.97;;;;;;;12.61;84.39;101793.41;4996930;28;20045;-67
2023/06/05 05:01:16;;;;;;;8.20;3.80;;;;;;;12.63;84.36;101793.28;4994376;28;20038;-67
2023/06/05 05:03:42;;;;;;;10.32;3.75;;;;;;;12.70;84.14;101786.53;4978907;28;20370;-67
2023/06/05 05:06:09;;;;;;;7.15;3.90;;;;;;;12.79;83.95;101787.41;4995939;28;23111;-67
2023/06/05 05:08:36;;;;;;;12.68;4.40;;;;;;;12.92;83.90;101793.13;4982238;28;20040;-67
2023/06/05 05:11:02;;;;;;;8.80;3.83;;;;;;;12.97;83.36;101787.47;4980294;28;20029;-67
2023/06/05 05:13:28;;;;;;;9.18;3.58;;;;;;;13.01;83.11;101786.19;4984645;28;20074;-67
2023/06/05 05:15:54;;;;;;;8.57;4.15;;;;;;;13.09;82.94;101790.66;4968919;28;20037;-67
2023/06/05 05:18:20;;;;;;;7.65;3.88;;;;;;;13.20;82.80;101790.44;4997770;28;20037;-67
2023/06/05 05:20:46;;;;;;;11.10;5.18;;;;;;;13.34;82.09;101789.94;4979901;28;20038;-67
2023/06/05 05:23:12;;;;;;;9.48;4.40;;;;;;;13.37;81.89;101787.06;4983188;28;24723;-67
2023/06/05 05:25:38;;;;;;;9.15;3.92;;;;;;;13.44;81.95;101788.06;5001405;28;20599;-67
2023/06/05 05:28:04;;;;;;;11.10;4.32;;;;;;;13.56;81.38;101795.66;4981780;28;20287;-67
2023/06/05 05:30:31;;;;;;;12.68;4.68;;;;;;;13.67;81.01;101797.19;4984416;28;20046;-67
2023/06/05 05:32:57;;;;;;;14.07;4.65;;;;;;;13.74;80.22;101800.84;4979460;28;20034;-67
2023/06/05 05:35:23;;;;;;;12.27;5.35;;;;;;;13.77;79.47;101790.94;4981373;28;20043;-67
2023/06/05 05:37:48;;;;;;;16.27;6.10;;;;;;;13.94;78.66;101788.44;4984632;28;20038;-67
2023/06/05 05:40:14;;;;;;;14.98;5.18;;;;;;;14.07;78.20;101788.00;4979661;28;20137;-67
2023/06/05 05:42:39;;;;;;;12.15;4.97;;;;;;;14.20;78.31;101784.00;4981639;28;20025;-67
2023/06/05 05:45:05;;;;;;;14.25;5.10;;;;;;;14.42;77.17;101792.22;4982161;28;20455;-67
2023/06/05 05:47:31;;;;;;;13.65;5.22;;;;;;;14.46;75.74;101782.31;4965509;28;20038;-67
2023/06/05 05:49:56;;;;;;;12.32;6.32;;;;;;;14.61;75.81;101796.41;4994681;28;20491;-67
2023/06/05 05:52:22;;;;;;;12.90;5.95;;;;;;;14.75;75.01;101797.63;4983162;28;20038;-67
2023/06/05 05:54:48;;;;;;;14.20;6.32;;;;;;;14.96;74.70;101792.75;4978734;28;20045;-67
2023/06/05 05:57:14;;;;;;;16.80;5.75;;;;;;;15.05;74.08;101798.81;4980129;28;20076;-67
2023/06/05 05:59:42;;;;;;;15.05;5.80;;;;;;;15.20;73.61;101799.00;4978701;28;20566;-67
2023/06/05 06:02:09;;;;;;;13.52;6.03;;;;;;;15.36;72.43;101800.78;4983492;28;20136;-67
2023/06/05 06:04:35;;;;;;;13.38;5.82;;;;;;;15.46;71.56;101787.56;4994584;28;20061;-67
2023/06/05 06:07:02;;;;;;;12.63;6.05;;;;;;;15.61;72.00;101785.09;4983184;28;20033;-67
2023/06/05 06:09:28;;;;;;;11.52;5.78;;;;;;;15.62;70.73;101794.59;4982410;28;20108;-67
2023/06/05 06:11:55;;;;;;;11.93;5.22;;;;;;;15.72;69.57;101795.22;4980716;28;20034;-67
2023/06/05 06:14:22;;;;;;;15.35;6.10;;;;;;;15.67;68.71;101797.50;4997980;28;20045;-67
2023/06/05 06:16:48;;;;;;;12.88;5.68;;;;;;;15.97;69.02;101793.38;4996605;28;20045;-67
2023/06/05 06:19:14;;;;;;;12.88;5.60;;;;;;;16.26;68.38;101787.59;4995845;28;20042;-67
2023/06/05 06:21:40;;;;;;;10.43;5.53;;;;;;;16.47;68.19;101792.22;4996908;28;20031;-68
2023/06/05 06:24:06;;;;;;;13.27;6.20;;;;;;;16.74;66.16;101796.19;4998317;28;20044;-67
2023/06/05 06:26:31;;;;;;;14.57;5.53;;;;;;;16.96;65.77;101791.19;4981417;28;20031;-67
2023/06/05 06:28:59;;;;;;;10.32;5.82;;;;;;;17.18;63.60;101786.94;4982677;28;20035;-67
2023/06/05 06:31:24;;;;;;;13.15;5.53;;;;;;;17.44;63.01;101786.56;4997607;28;20473;-67
2023/06/05 06:33:50;;;;;;;13.75;6.22;;;;;;;17.58;62.49;101781.53;4996279;28;20042;-68
2023/06/05 06:36:17;;;;;;;14.20;5.65;;;;;;;17.73;62.83;101789.41;4982487;28;20033;-68
2023/06/05 06:38:43;;;;;;;11.20;5.68;;;;;;;17.98;61.78;101790.78;4981684;28;20053;-67
2023/06/05 06:41:09;;;;;;;10.05;6.25;;;;;;;18.18;60.39;101795.50;4995807;28;20524;-68
2023/06/05 06:43:34;;;;;;;13.50;5.80;;;;;;;18.26;60.17;101795.41;4982477;28;20399;-67
2023/06/05 06:46:01;;;;;;;17.52;6.38;;;;;;;18.39;59.76;101792.94;4996270;28;20311;-68
2023/06/05 06:48:27;;;;;;;23.30;9.57;;;;;;;18.51;58.83;101790.66;4994086;28;20050;-68
2023/06/05 06:50:52;;;;;;;13.50;5.75;;;;;;;18.51;57.83;101797.72;4955652;28;20089;-68
2023/06/05 06:53:18;;;;;;;13.13;5.75;;;;;;;18.71;57.57;101800.59;4956396;28;20496;-68
2023/06/05 06:55:44;;;;;;;12.15;6.20;;;;;;;18.72;58.29;101803.00;4975868;28;20484;-68
2023/06/05 06:58:10;;;;;;;17.35;6.22;;;;;;;19.04;57.22;101795.66;4973756;28;20043;-68
2023/06/05 07:00:35;;;;;;;13.43;4.82;;;;;;;19.42;55.53;101801.47;4977425;28;20034;-68
2023/06/05 07:03:02;;;;;;;16.83;5.22;;;;;;;19.28;55.20;101801.56;4977565;28;20481;-68
2023/06/05 07:05:27;;;;;;;11.20;5.55;;;;;;;19.80;54.78;101795.09;4977679;28;20058;-68
2023/06/05 07:07:53;;;;;;;11.18;5.20;;;;;;;20.18;53.76;101798.13;4977023;28;20512;-69
2023/06/05 07:10:19;;;;;;;13.02;4.88;;;;;;;20.46;52.95;101801.69;5016488;28;20040;-68
2023/06/05 07:12:44;;;;;;;12.15;5.20;;;;;;;20.57;51.75;101798.50;4996636;28;20034;-68
2023/06/05 07:15:10;;;;;;;12.45;4.30;;;;;;;20.88;51.12;101795.31;5016761;28;20056;-68
2023/06/05 07:17:35;;;;;;;13.48;4.60;;;;;;;21.35;50.98;101800.63;5015395;28;20045;-68
2023/06/05 07:20:02;;;;;;;9.05;4.95;;;;;;;21.47;49.08;101795.59;5001492;28;20048;-68
2023/06/05 07:22:29;;;;;;;14.35;4.88;;;;;;;21.59;48.57;101799.25;5001459;28;20415;-67
2023/06/05 07:24:55;;;;;;;13.52;4.93;;;;;;;21.52;48.69;101795.78;5000615;28;20057;-68
2023/06/05 07:27:20;;;;;;;11.52;4.25;;;;;;;21.82;48.56;101787.41;5019736;28;20641;-68
2023/06/05 07:29:46;;;;;;;12.45;4.30;;;;;;;21.85;48.34;101787.81;5005469;28;20263;-69
2023/06/05 07:32:12;;;;;;;9.45;4.40;;;;;;;21.65;48.00;101793.13;4995971;28;20057;-68
2023/06/05 07:34:38;;;;;;;11.05;4.63;;;;;;;21.85;48.01;101790.47;4995098;28;20049;-68
2023/06/05 07:37:04;;;;;;;8.77;3.70;;;;;;;22.18;46.89;101786.88;4998713;28;20040;-68
2023/06/05 07:39:30;;;;;;;11.73;4.65;;;;;;;22.41;46.72;101793.53;5011755;28;20045;-68
2023/06/05 07:41:56;;;;;;;10.93;4.22;;;;;;;22.67;46.50;101793.38;5016695;28;20087;-68
2023/06/05 07:44:21;;;;;;;7.72;4.13;;;;;;;22.82;46.51;101789.63;5002739;28;20053;-68
2023/06/05 07:46:48;;;;;;;12.60;4.18;;;;;;;23.08;45.50;101788.66;5018990;28;20091;-68
2023/06/05 07:49:15;;;;;;;12.88;7.05;;;;;;;23.13;45.28;101791.44;5013237;28;20044;-69
2023/06/05 07:51:42;;;;;;;11.02;4.78;;;;;;;23.29;44.21;101782.97;5012416;28;20615;-67
2023/06/05 07:54:12;;;;;;;8.70;4.10;;;;;;;23.08;44.66;101783.38;5012953;28;20183;-68
2023/06/05 07:56:39;;;;;;;10.63;4.47;;;;;;;22.94;44.18;101785.25;4995432;28;20025;-68
2023/06/05 07:59:05;;;;;;;14.30;4.75;;;;;;;23.06;44.14;101788.06;5014438;28;20419;-68
2023/06/05 08:01:36;;;;;;;8.18;4.50;;;;;;;23.02;43.89;101790.31;4995599;28;20072;-68
2023/06/05 08:04:05;;;;;;;11.00;4.22;;;;;;;23.21;44.40;101787.75;5000207;28;20045;-68
2023/06/05 08:06:37;;;;;;;13.48;4.88;;;;;;;23.67;43.66;101789.94;5000117;28;20037;-69
2023/06/05 08:09:09;;;;;;;8.80;3.97;;;;;;;23.95;42.85;101785.22;5015851;28;20137;-68
2023/06/05 08:11:38;;;;;;;10.80;4.35;;;;;;;24.03;43.05;101780.41;5015519;28;20038;-69
2023/06/05 08:14:05;;;;;;;13.32;5.15;;;;;;;23.81;43.12;101785.38;4984876;28;20083;-68
2023/06/05 08:16:31;;;;;;;8.07;4.32;;;;;;;23.59;43.67;101784.94;4995842;28;20034;-68
2023/06/05 08:18:57;;;;;;;11.18;4.63;;;;;;;23.89;43.74;101785.06;4996678;28;20053;-69
2023/06/05 08:21:22;;;;;;;12.23;5.28;;;;;;;23.68;43.94;101790.78;5007443;28;20149;-69
2023/06/05 08:23:48;;;;;;;12.48;5.10;;;;;;;23.48;43.14;101785.66;5013495;28;20124;-68
2023/06/05 08:26:13;;;;;;;15.73;4.35;;;;;;;23.87;43.46;101776.53;5018939;28;20068;-68
2023/06/05 08:28:40;;;;;;;15.98;4.55;;;;;;;23.86;43.38;101774.09;5010268;28;20056;-68
2023/06/05 08:31:10;;;;;;;8.32;4.53;;;;;;;24.19;42.75;101778.22;5019064;23;20049;-73
2023/06/05 08:33:37;;;;;;;16.95;4.55;;;;;;;24.14;42.76;101770.91;5012633;28;20247;-73
2023/06/05 08:36:03;;;;;;;11.52;4.47;;;;;;;24.28;42.17;101771.56;5015456;28;20499;-73
2023/06/05 08:38:30;;;;;;;11.45;4.70;;;;;;;24.45;42.38;101767.25;5015607;28;20542;-73
2023/06/05 08:41:00;;;;;;;10.68;4.38;;;;;;;24.71;42.17;101767.91;5006442;28;20312;-73
2023/06/05 08:43:26;;;;;;;8.63;4.20;;;;;;;24.87;41.96;101766.47;4995887;28;20389;-70
2023/06/05 08:45:54;;;;;;;6.90;3.75;;;;;;;24.78;41.50;101757.22;4995303;28;20613;-70
2023/06/05 08:48:21;;;;;;;10.85;5.10;;;;;;;24.52;41.62;101759.22;4994050;28;20049;-71
2023/06/05 08:50:48;;;;;;;14.52;4.93;;;;;;;24.55;41.50;101761.44;4978004;28;20041;-70
2023/06/05 08:53:16;;;;;;;11.63;4.70;;;;;;;24.82;40.95;101759.16;4979186;28;20085;-71
2023/06/05 08:55:46;;;;;;;12.55;4.63;;;;;;;24.61;41.44;101757.06;4992249;28;20375;-70
2023/06/05 08:58:13;;;;;;;14.80;4.50;;;;;;;24.75;41.71;101755.84;4994580;28;20053;-71
2023/06/05 09:00:38;;;;;;;9.82;4.22;;;;;;;24.61;41.51;101759.72;4992672;28;20026;-69
2023/06/05 09:03:05;;;;;;;10.10;4.57;;;;;;;24.56;42.23;101757.72;4993643;28;20026;-70
2023/06/05 09:05:31;;;;;;;11.13;4.38;;;;;;;24.61;42.12;101754.41;4997813;28;20702;-70
2023/06/05 09:07:58;;;;;;;8.90;3.50;;;;;;;25.01;41.59;101753.78;4998286;28;20033;-70
2023/06/05 09:10:28;;;;;;;12.38;5.10;;;;;;;25.13;40.77;101751.13;4996220;28;20388;-70
2023/06/05 09:12:57;;;;;;;10.93;4.18;;;;;;;25.21;41.09;101753.44;4986397;28;20066;-71
2023/06/05 09:15:24;;;;;;;8.93;3.97;;;;;;;25.34;41.55;101755.09;4997454;28;20495;-70
2023/06/05 09:18:10;;;;;;;8.35;4.45;;;;;;;25.03;40.89;101749.88;4998597;28;20117;-70
2023/06/05 09:20:45;;;;;;;9.57;4.72;;;;;;;24.97;40.56;101747.31;4998858;28;20042;-70
2023/06/05 09:23:26;;;;;;;9.32;4.28;;;;;;;25.14;40.44;101742.13;4998479;28;20038;-70
2023/06/05 09:25:53;;;;;;;9.50;4.63;;;;;;;24.74;41.00;101743.59;4995450;28;20032;-70
2023/06/05 09:28:19;;;;;;;8.10;4.25;;;;;;;24.86;42.03;101739.13;4997259;28;20045;-70
2023/06/05 09:30:56;;;;;;;11.73;3.90;;;;;;;24.66;41.43;101738.63;4999606;28;20479;-70
2023/06/05 09:33:23;;;;;;;8.65;4.35;;;;;;;24.79;42.16;101732.28;4997910;28;20053;-71
2023/06/05 09:36:11;;;;;;;9.10;3.70;;;;;;;24.97;40.72;101726.91;4999697;28;20034;-70
2023/06/05 09:38:40;;;;;;;9.40;4.78;;;;;;;25.14;40.68;101736.84;4996480;28;20050;-70
2023/06/05 09:41:08;;;;;;;9.20;3.90;;;;;;;25.35;40.74;101736.25;4999699;28;20034;-70
2023/06/05 09:43:34;;;;;;;10.48;3.83;;;;;;;25.47;40.44;101732.78;4995085;28;20057;-70
2023/06/05 09:46:11;;;;;;;8.48;3.85;;;;;;;25.33;39.92;101732.25;4997602;28;20636;-71
2023/06/05 09:48:37;;;;;;;6.80;3.65;;;;;;;25.28;39.76;101738.25;4999541;28;20045;-71
2023/06/05 09:51:15;;;;;;;9.45;3.95;;;;;;;25.31;39.47;101721.84;4999484;28;20061;-70
2023/06/05 09:53:46;;;;;;;8.77;3.25;;;;;;;25.32;40.53;101728.00;4998077;28;20049;-71
2023/06/05 09:56:16;;;;;;;8.50;3.95;;;;;;;25.43;40.17;101732.47;4995197;28;20050;-70
2023/06/05 09:58:50;;;;;;;9.20;4.32;;;;;;;25.52;39.82;101727.59;5006804;28;20053;-70
2023/06/05 10:01:22;;;;;;;12.95;4.35;;;;;;;25.78;39.48;101716.44;5001334;28;20041;-71
2023/06/05 10:03:59;;;;;;;7.55;3.50;;;;;;;25.71;39.22;101710.50;4983172;28;20048;-71
2023/06/05 10:06:27;;;;;;;9.23;3.20;;;;;;;25.52;39.61;101719.63;4996514;28;20034;-71
2023/06/05 10:08:55;;;;;;;8.55;3.38;;;;;;;25.57;39.08;101715.22;4995455;28;20662;-71
2023/06/05 10:11:22;;;;;;;10.25;3.67;;;;;;;25.89;38.58;101716.66;4996164;28;20330;-71
2023/06/05 10:13:49;;;;;;;8.60;3.33;;;;;;;25.83;38.92;101718.41;4996529;28;20041;-71
2023/06/05 10:16:17;;;;;;;9.20;2.63;;;;;;;25.80;39.36;101710.91;4993597;28;20096;-71
2023/06/05 10:18:46;;;;;;;7.88;2.65;;;;;;;25.92;39.10;101710.88;4981583;28;20059;-71
2023/06/05 10:21:14;;;;;;;10.80;3.13;;;;;;;25.96;38.71;101704.09;4994873;28;20034;-71
2023/06/05 10:23:40;;;;;;;9.20;3.28;;;;;;;26.08;39.03;101704.03;4998263;28;20038;-71
2023/06/05 10:26:13;;;;;;;7.90;3.33;;;;;;;26.14;37.82;101705.72;4993415;28;20080;-71
2023/06/05 10:28:53;;;;;;;3.95;2.13;;;;;;;25.78;37.62;101702.38;4996348;28;20327;-71
2023/06/05 10:31:26;;;;;;;7.28;2.20;;;;;;;25.94;37.06;101703.50;4995569;28;20030;-72
2023/06/05 10:34:04;;;;;;;7.45;2.85;;;;;;;25.70;37.40;101698.22;4993230;28;20052;-71
2023/06/05 10:37:21;;;;;;;5.95;2.67;;;;;;;25.82;37.57;101708.81;4995923;28;20026;-72
2023/06/05 10:39:50;;;;;;;6.63;2.30;;;;;;;26.10;37.77;101705.38;4994748;28;20100;-74
2023/06/05 10:42:26;;;;;;;10.10;2.70;;;;;;;26.16;37.71;101696.47;4994624;28;20040;-73
2023/06/05 10:44:52;;;;;;;10.48;2.92;;;;;;;25.84;37.06;101696.94;4999573;28;20050;-71
2023/06/05 10:47:32;;;;;;;6.75;2.42;;;;;;;25.75;35.81;101692.19;4996761;28;20041;-71
2023/06/05 10:50:19;;;;;;;7.18;2.15;;;;;;;25.94;36.72;101693.69;4995727;28;20399;-71
2023/06/05 10:52:49;;;;;;;8.15;3.75;;;;;;;25.76;37.43;101691.97;4983356;28;20121;-71
2023/06/05 10:55:15;;;;;;;8.18;2.88;;;;;;;26.14;38.20;101690.56;5012583;28;20046;-71
2023/06/05 10:58:15;;;;;;;8.18;2.72;;;;;;;26.10;36.77;101686.78;4996454;28;20030;-71
2023/06/05 11:01:16;;;;;;;6.13;2.70;;;;;;;25.96;37.92;101674.84;4994363;28;20530;-71
2023/06/05 11:03:58;;;;;;;7.03;2.30;;;;;;;25.84;38.82;101680.16;4976266;28;20116;-72
2023/06/05 11:06:25;;;;;;;10.52;3.17;;;;;;;25.82;37.70;101676.94;4993722;28;20034;-73
2023/06/05 11:09:13;;;;;;;9.18;3.05;;;;;;;25.88;37.32;101681.34;4990424;28;20042;-72
2023/06/05 11:12:01;;;;;;;7.13;3.40;;;;;;;26.07;36.46;101678.47;4994775;28;20588;-73
2023/06/05 11:14:46;;;;;;;9.07;2.95;;;;;;;26.29;36.68;101682.06;4996546;28;20037;-72
2023/06/05 11:17:37;;;;;;;7.20;3.03;;;;;;;26.54;35.92;101676.38;4995640;28;20034;-72
2023/06/05 11:20:09;;;;;;;6.40;2.70;;;;;;;26.38;36.55;101666.53;4995663;28;20077;-72
2023/06/05 11:22:55;;;;;;;8.38;2.65;;;;;;;26.35;36.22;101667.84;5012369;28;21463;-73
2023/06/05 11:25:21;;;;;;;4.13;2.40;;;;;;;26.29;35.59;101667.97;4985618;28;20072;-73
2023/06/05 11:27:51;;;;;;;14.90;3.10;;;;;;;26.42;36.68;101665.78;4994032;28;20049;-73